FDX9008 VABB-OMDW
Flight info
| Callsign | FDX9008 |
|---|---|
| Flight time | 2h 31m |
| Altitude | 34000 |
| Route | RAXET2A SAKUN DCT VUSET A454 PASOV M564 UMAMI |
| Aircraft | B77L/H-SDE1E2E3FGHIJ2J3J4J5M1RWXY/LB1D1 |
Departure
| Time | 2026-05-05 08:39 |
|---|---|
| Airport | Chhatrapati Shivaji Maharaj International Airport (VABB) |
Arrival
| Time | 2026-05-05 11:10 |
|---|---|
| Airport | Al Maktoum International Airport (OMDW) |
| Time | Latitude | Longitude | Altitude | Speed | Heading |
|---|---|---|---|---|---|
| 2026-05-05 08:11 | 19.09515 | 72.86746 | 47 ft | 0 kts | 321° |
| 2026-05-05 08:27 | 19.09499 | 72.86760 | 46 ft | 4 kts | 321° |
| 2026-05-05 08:27 | 19.09478 | 72.86777 | 46 ft | 3 kts | 321° |
| 2026-05-05 08:27 | 19.09461 | 72.86792 | 46 ft | 4 kts | 297° |
| 2026-05-05 08:28 | 19.09457 | 72.86809 | 46 ft | 4 kts | 244° |
| 2026-05-05 08:28 | 19.09472 | 72.86831 | 46 ft | 4 kts | 228° |
| 2026-05-05 08:28 | 19.09477 | 72.86837 | 46 ft | 0 kts | 229° |
| 2026-05-05 08:30 | 19.09467 | 72.86828 | 46 ft | 4 kts | 214° |
| 2026-05-05 08:30 | 19.09436 | 72.86823 | 47 ft | 4 kts | 174° |
| 2026-05-05 08:31 | 19.09409 | 72.86838 | 50 ft | 5 kts | 144° |
| 2026-05-05 08:31 | 19.09385 | 72.86860 | 48 ft | 5 kts | 138° |
| 2026-05-05 08:31 | 19.09362 | 72.86883 | 47 ft | 5 kts | 136° |
| 2026-05-05 08:31 | 19.09330 | 72.86916 | 47 ft | 7 kts | 135° |
| 2026-05-05 08:32 | 19.09294 | 72.86954 | 50 ft | 7 kts | 135° |
| 2026-05-05 08:32 | 19.09257 | 72.86992 | 47 ft | 7 kts | 135° |
| 2026-05-05 08:32 | 19.09236 | 72.87039 | 51 ft | 7 kts | 97° |
| 2026-05-05 08:32 | 19.09235 | 72.87094 | 54 ft | 7 kts | 90° |
| 2026-05-05 08:33 | 19.09235 | 72.87148 | 54 ft | 7 kts | 89° |
| 2026-05-05 08:33 | 19.09236 | 72.87203 | 50 ft | 7 kts | 89° |
| 2026-05-05 08:33 | 19.09217 | 72.87250 | 49 ft | 7 kts | 143° |
| 2026-05-05 08:33 | 19.09167 | 72.87263 | 48 ft | 8 kts | 178° |
| 2026-05-05 08:34 | 19.09114 | 72.87264 | 50 ft | 8 kts | 179° |
| 2026-05-05 08:34 | 19.09065 | 72.87277 | 50 ft | 8 kts | 139° |
| 2026-05-05 08:34 | 19.09051 | 72.87331 | 49 ft | 8 kts | 93° |
| 2026-05-05 08:34 | 19.09051 | 72.87399 | 49 ft | 14 kts | 89° |
| 2026-05-05 08:35 | 19.09053 | 72.87506 | 48 ft | 13 kts | 89° |
| 2026-05-05 08:35 | 19.09054 | 72.87605 | 48 ft | 13 kts | 89° |
| 2026-05-05 08:35 | 19.09056 | 72.87705 | 47 ft | 13 kts | 89° |
| 2026-05-05 08:35 | 19.09057 | 72.87804 | 48 ft | 13 kts | 89° |
| 2026-05-05 08:36 | 19.09058 | 72.87903 | 48 ft | 13 kts | 89° |
| 2026-05-05 08:36 | 19.09059 | 72.87994 | 53 ft | 7 kts | 89° |
| 2026-05-05 08:36 | 19.09044 | 72.88041 | 47 ft | 7 kts | 133° |
| 2026-05-05 08:36 | 19.08996 | 72.88053 | 49 ft | 8 kts | 180° |
| 2026-05-05 08:37 | 19.08937 | 72.88053 | 49 ft | 9 kts | 180° |
| 2026-05-05 08:37 | 19.08891 | 72.88016 | 47 ft | 9 kts | 252° |
| 2026-05-05 08:37 | 19.08887 | 72.87949 | 50 ft | 9 kts | 269° |
| 2026-05-05 08:37 | 19.08887 | 72.87929 | 52 ft | 0 kts | 270° |
| 2026-05-05 08:38 | 19.08886 | 72.87877 | 52 ft | 21 kts | 269° |
| 2026-05-05 08:38 | 19.08883 | 72.87605 | 46 ft | 53 kts | 269° |
| 2026-05-05 08:38 | 19.08875 | 72.87072 | 51 ft | 95 kts | 269° |
| 2026-05-05 08:39 | 19.08863 | 72.86178 | 51 ft | 146 kts | 269° |
| 2026-05-05 08:39 | 19.08861 | 72.84970 | 120 ft | 181 kts | 271° |
| 2026-05-05 08:39 | 19.08875 | 72.83657 | 738 ft | 176 kts | 269° |
| 2026-05-05 08:39 | 19.08870 | 72.82342 | 1481 ft | 179 kts | 269° |
| 2026-05-05 08:40 | 19.08839 | 72.80961 | 2060 ft | 196 kts | 269° |
| 2026-05-05 08:40 | 19.08801 | 72.79434 | 2431 ft | 222 kts | 268° |
| 2026-05-05 08:40 | 19.08762 | 72.77697 | 2836 ft | 247 kts | 268° |
| 2026-05-05 08:40 | 19.08725 | 72.75858 | 3659 ft | 253 kts | 268° |
| 2026-05-05 08:41 | 19.08736 | 72.73962 | 4432 ft | 261 kts | 275° |
| 2026-05-05 08:41 | 19.08985 | 72.72012 | 5141 ft | 271 kts | 278° |
| 2026-05-05 08:41 | 19.09234 | 72.70037 | 6150 ft | 271 kts | 276° |
| 2026-05-05 08:41 | 19.09461 | 72.68048 | 6994 ft | 276 kts | 276° |
| 2026-05-05 08:42 | 19.09686 | 72.66005 | 7768 ft | 283 kts | 276° |
| 2026-05-05 08:42 | 19.09913 | 72.63919 | 8598 ft | 287 kts | 276° |
| 2026-05-05 08:42 | 19.10139 | 72.61827 | 9421 ft | 292 kts | 276° |
| 2026-05-05 08:42 | 19.10371 | 72.59667 | 10170 ft | 299 kts | 276° |
| 2026-05-05 08:43 | 19.10613 | 72.57416 | 10535 ft | 321 kts | 276° |
| 2026-05-05 08:43 | 19.10873 | 72.54971 | 10735 ft | 347 kts | 276° |
| 2026-05-05 08:43 | 19.11155 | 72.52332 | 11005 ft | 370 kts | 276° |
| 2026-05-05 08:43 | 19.11450 | 72.49583 | 11606 ft | 381 kts | 276° |
| 2026-05-05 08:44 | 19.11746 | 72.46813 | 12342 ft | 387 kts | 275° |
| 2026-05-05 08:44 | 19.12050 | 72.43974 | 13183 ft | 390 kts | 275° |
| 2026-05-05 08:44 | 19.12355 | 72.41113 | 13985 ft | 393 kts | 275° |
| 2026-05-05 08:44 | 19.12664 | 72.38220 | 14734 ft | 396 kts | 276° |
| 2026-05-05 08:45 | 19.12973 | 72.35312 | 15506 ft | 398 kts | 276° |
| 2026-05-05 08:45 | 19.13282 | 72.32393 | 16259 ft | 401 kts | 277° |
| 2026-05-05 08:45 | 19.13596 | 72.29434 | 16936 ft | 406 kts | 277° |
| 2026-05-05 08:45 | 19.13908 | 72.26487 | 17629 ft | 410 kts | 277° |
| 2026-05-05 08:46 | 19.14225 | 72.23480 | 18312 ft | 413 kts | 277° |
| 2026-05-05 08:46 | 19.14545 | 72.20445 | 18904 ft | 417 kts | 277° |
| 2026-05-05 08:46 | 19.14867 | 72.17388 | 19505 ft | 420 kts | 278° |
| 2026-05-05 08:46 | 19.15191 | 72.14308 | 20106 ft | 423 kts | 278° |
| 2026-05-05 08:47 | 19.15525 | 72.11205 | 20680 ft | 423 kts | 280° |
| 2026-05-05 08:47 | 19.16274 | 72.08197 | 21105 ft | 424 kts | 296° |
| 2026-05-05 08:47 | 19.17664 | 72.05450 | 21478 ft | 427 kts | 300° |
| 2026-05-05 08:47 | 19.19123 | 72.02689 | 21978 ft | 430 kts | 300° |
| 2026-05-05 08:48 | 19.20572 | 71.99918 | 22590 ft | 431 kts | 300° |
| 2026-05-05 08:48 | 19.22015 | 71.97126 | 23197 ft | 432 kts | 300° |
| 2026-05-05 08:48 | 19.23448 | 71.94322 | 23657 ft | 435 kts | 300° |
| 2026-05-05 08:48 | 19.24885 | 71.91487 | 24031 ft | 439 kts | 300° |
| 2026-05-05 08:49 | 19.26312 | 71.88659 | 24393 ft | 442 kts | 299° |
| 2026-05-05 08:49 | 19.27768 | 71.85765 | 24773 ft | 445 kts | 299° |
| 2026-05-05 08:49 | 19.29226 | 71.82861 | 25157 ft | 448 kts | 299° |
| 2026-05-05 08:49 | 19.30200 | 71.80921 | 25425 ft | 450 kts | 299° |
| 2026-05-05 08:50 | 19.31678 | 71.77978 | 25803 ft | 453 kts | 299° |
| 2026-05-05 08:50 | 19.33647 | 71.74055 | 26283 ft | 457 kts | 298° |
| 2026-05-05 08:50 | 19.34656 | 71.72044 | 26525 ft | 459 kts | 298° |
| 2026-05-05 08:50 | 19.36137 | 71.69090 | 26883 ft | 461 kts | 298° |
| 2026-05-05 08:51 | 19.37646 | 71.66080 | 27241 ft | 464 kts | 298° |
| 2026-05-05 08:51 | 19.39165 | 71.63050 | 27583 ft | 467 kts | 298° |
| 2026-05-05 08:51 | 19.40695 | 71.59994 | 27926 ft | 470 kts | 298° |
| 2026-05-05 08:51 | 19.42234 | 71.56920 | 28261 ft | 473 kts | 298° |
| 2026-05-05 08:52 | 19.43776 | 71.53838 | 28599 ft | 475 kts | 298° |
| 2026-05-05 08:52 | 19.45329 | 71.50733 | 28913 ft | 478 kts | 298° |
| 2026-05-05 08:52 | 19.46877 | 71.47635 | 29209 ft | 481 kts | 298° |
| 2026-05-05 08:52 | 19.48445 | 71.44495 | 29525 ft | 483 kts | 297° |
| 2026-05-05 08:53 | 19.50020 | 71.41341 | 29913 ft | 483 kts | 297° |
| 2026-05-05 08:53 | 19.51588 | 71.38199 | 30330 ft | 481 kts | 297° |
| 2026-05-05 08:53 | 19.53147 | 71.35074 | 30802 ft | 478 kts | 297° |
| 2026-05-05 08:53 | 19.54700 | 71.31957 | 31239 ft | 477 kts | 297° |
| 2026-05-05 08:54 | 19.56251 | 71.28844 | 31646 ft | 476 kts | 297° |
| 2026-05-05 08:54 | 19.57795 | 71.25743 | 32076 ft | 474 kts | 297° |
| 2026-05-05 08:54 | 19.59315 | 71.22689 | 32508 ft | 473 kts | 297° |
| 2026-05-05 08:54 | 19.60844 | 71.19607 | 32940 ft | 471 kts | 296° |
| 2026-05-05 08:55 | 19.62258 | 71.16482 | 33375 ft | 469 kts | 294° |
| 2026-05-05 08:55 | 19.63562 | 71.13310 | 33780 ft | 468 kts | 292° |
| 2026-05-05 08:55 | 19.64822 | 71.10111 | 33848 ft | 471 kts | 292° |
| 2026-05-05 08:56 | 19.67320 | 71.03704 | 33849 ft | 468 kts | 292° |
| 2026-05-05 08:56 | 19.69840 | 70.97347 | 33851 ft | 466 kts | 292° |
| 2026-05-05 08:57 | 19.72366 | 70.91055 | 33854 ft | 466 kts | 292° |
| 2026-05-05 08:57 | 19.74915 | 70.84729 | 33854 ft | 466 kts | 292° |
| 2026-05-05 08:58 | 19.77467 | 70.78389 | 33855 ft | 466 kts | 292° |
| 2026-05-05 08:58 | 19.80014 | 70.72048 | 33849 ft | 466 kts | 292° |
| 2026-05-05 08:59 | 19.82547 | 70.65734 | 33854 ft | 467 kts | 292° |
| 2026-05-05 08:59 | 19.85092 | 70.59382 | 33856 ft | 467 kts | 292° |
| 2026-05-05 09:00 | 19.87637 | 70.53020 | 33851 ft | 467 kts | 292° |
| 2026-05-05 09:00 | 19.90162 | 70.46703 | 33845 ft | 467 kts | 292° |
| 2026-05-05 09:01 | 19.92700 | 70.40345 | 33847 ft | 466 kts | 292° |
| 2026-05-05 09:01 | 19.95236 | 70.33983 | 33852 ft | 466 kts | 292° |
| 2026-05-05 09:02 | 19.97766 | 70.27629 | 33842 ft | 466 kts | 292° |
| 2026-05-05 09:02 | 20.00275 | 70.21321 | 33841 ft | 466 kts | 292° |
| 2026-05-05 09:03 | 20.02797 | 70.14971 | 33843 ft | 466 kts | 292° |
| 2026-05-05 09:03 | 20.05319 | 70.08615 | 33846 ft | 465 kts | 292° |
| 2026-05-05 09:04 | 20.07835 | 70.02266 | 33843 ft | 465 kts | 292° |
| 2026-05-05 09:04 | 20.10346 | 69.95921 | 33845 ft | 465 kts | 292° |
| 2026-05-05 09:05 | 20.12847 | 69.89594 | 33846 ft | 465 kts | 292° |
| 2026-05-05 09:05 | 20.15356 | 69.83240 | 33842 ft | 465 kts | 292° |
| 2026-05-05 09:06 | 20.17845 | 69.76929 | 33846 ft | 465 kts | 292° |
| 2026-05-05 09:06 | 20.20350 | 69.70567 | 33845 ft | 465 kts | 292° |
| 2026-05-05 09:07 | 20.22851 | 69.64211 | 33842 ft | 465 kts | 292° |
| 2026-05-05 09:07 | 20.25348 | 69.57854 | 33844 ft | 465 kts | 292° |
| 2026-05-05 09:08 | 20.27824 | 69.51544 | 33842 ft | 465 kts | 292° |
| 2026-05-05 09:08 | 20.30314 | 69.45190 | 33846 ft | 465 kts | 292° |
| 2026-05-05 09:09 | 20.32801 | 69.38837 | 33839 ft | 465 kts | 292° |
| 2026-05-05 09:09 | 20.35286 | 69.32479 | 33845 ft | 465 kts | 292° |
| 2026-05-05 09:10 | 20.37769 | 69.26120 | 33846 ft | 465 kts | 292° |
| 2026-05-05 09:10 | 20.40252 | 69.19752 | 33843 ft | 464 kts | 292° |
| 2026-05-05 09:11 | 20.42731 | 69.13389 | 33841 ft | 464 kts | 292° |
| 2026-05-05 09:11 | 20.45194 | 69.07057 | 33841 ft | 464 kts | 292° |
| 2026-05-05 09:12 | 20.47664 | 69.00697 | 33841 ft | 464 kts | 292° |
| 2026-05-05 09:12 | 20.50136 | 68.94328 | 33843 ft | 464 kts | 292° |
| 2026-05-05 09:13 | 20.52602 | 68.87965 | 33842 ft | 464 kts | 292° |
| 2026-05-05 09:13 | 20.55051 | 68.81636 | 33843 ft | 464 kts | 292° |
| 2026-05-05 09:14 | 20.57512 | 68.75268 | 33840 ft | 464 kts | 292° |
| 2026-05-05 09:14 | 20.59977 | 68.68883 | 33837 ft | 464 kts | 292° |
| 2026-05-05 09:15 | 20.62439 | 68.62500 | 33841 ft | 464 kts | 292° |
| 2026-05-05 09:15 | 20.64880 | 68.56159 | 33842 ft | 464 kts | 292° |
| 2026-05-05 09:16 | 20.67334 | 68.49778 | 33841 ft | 464 kts | 292° |
| 2026-05-05 09:16 | 20.69785 | 68.43396 | 33844 ft | 464 kts | 292° |
| 2026-05-05 09:17 | 20.72241 | 68.36994 | 33840 ft | 464 kts | 292° |
| 2026-05-05 09:17 | 20.74688 | 68.30606 | 33842 ft | 464 kts | 292° |
| 2026-05-05 09:18 | 20.77123 | 68.24243 | 33844 ft | 464 kts | 292° |
| 2026-05-05 09:18 | 20.79566 | 68.17849 | 33842 ft | 464 kts | 291° |
| 2026-05-05 09:19 | 20.82005 | 68.11458 | 33845 ft | 464 kts | 291° |
| 2026-05-05 09:19 | 20.84440 | 68.05069 | 33849 ft | 464 kts | 291° |
| 2026-05-05 09:20 | 20.86856 | 67.98721 | 33848 ft | 464 kts | 291° |
| 2026-05-05 09:20 | 20.89284 | 67.92334 | 33846 ft | 463 kts | 291° |
| 2026-05-05 09:21 | 20.91710 | 67.85944 | 33843 ft | 463 kts | 291° |
| 2026-05-05 09:21 | 20.94132 | 67.79557 | 33844 ft | 463 kts | 291° |
| 2026-05-05 09:22 | 20.96549 | 67.73174 | 33847 ft | 463 kts | 291° |
| 2026-05-05 09:22 | 20.98964 | 67.66787 | 33848 ft | 463 kts | 291° |
| 2026-05-05 09:23 | 21.01377 | 67.60399 | 33840 ft | 463 kts | 291° |
| 2026-05-05 09:23 | 21.03788 | 67.54006 | 33848 ft | 463 kts | 291° |
| 2026-05-05 09:24 | 21.06196 | 67.47613 | 33851 ft | 463 kts | 291° |
| 2026-05-05 09:24 | 21.08599 | 67.41224 | 33844 ft | 463 kts | 291° |
| 2026-05-05 09:25 | 21.11001 | 67.34832 | 33843 ft | 462 kts | 291° |
| 2026-05-05 09:25 | 21.13385 | 67.28478 | 33846 ft | 462 kts | 291° |
| 2026-05-05 09:26 | 21.15779 | 67.22089 | 33838 ft | 462 kts | 291° |
| 2026-05-05 09:26 | 21.18172 | 67.15694 | 33846 ft | 462 kts | 291° |
| 2026-05-05 09:27 | 21.20562 | 67.09297 | 33845 ft | 462 kts | 291° |
| 2026-05-05 09:27 | 21.22948 | 67.02903 | 33847 ft | 462 kts | 291° |
| 2026-05-05 09:28 | 21.25332 | 66.96509 | 33841 ft | 462 kts | 291° |
| 2026-05-05 09:28 | 21.27712 | 66.90112 | 33848 ft | 462 kts | 291° |
| 2026-05-05 09:29 | 21.30092 | 66.83712 | 33840 ft | 462 kts | 291° |
| 2026-05-05 09:29 | 21.32451 | 66.77356 | 33837 ft | 462 kts | 291° |
| 2026-05-05 09:30 | 21.34824 | 66.70955 | 33841 ft | 462 kts | 291° |
| 2026-05-05 09:30 | 21.37192 | 66.64558 | 33842 ft | 461 kts | 291° |
| 2026-05-05 09:31 | 21.39559 | 66.58156 | 33845 ft | 461 kts | 291° |
| 2026-05-05 09:31 | 21.41926 | 66.51746 | 33843 ft | 461 kts | 291° |
| 2026-05-05 09:32 | 21.44288 | 66.45341 | 33837 ft | 461 kts | 291° |
| 2026-05-05 09:32 | 21.46649 | 66.38928 | 33839 ft | 461 kts | 291° |
| 2026-05-05 09:33 | 21.48991 | 66.32558 | 33838 ft | 461 kts | 291° |
| 2026-05-05 09:33 | 21.51343 | 66.26154 | 33839 ft | 461 kts | 291° |
| 2026-05-05 09:34 | 21.53693 | 66.19745 | 33838 ft | 461 kts | 291° |
| 2026-05-05 09:34 | 21.56043 | 66.13330 | 33833 ft | 461 kts | 291° |
| 2026-05-05 09:35 | 21.58388 | 66.06918 | 33833 ft | 461 kts | 291° |
| 2026-05-05 09:35 | 21.61898 | 65.97304 | 33834 ft | 460 kts | 291° |
| 2026-05-05 09:36 | 21.64233 | 65.90897 | 33832 ft | 460 kts | 291° |
| 2026-05-05 09:36 | 21.66557 | 65.84512 | 33834 ft | 460 kts | 291° |
| 2026-05-05 09:37 | 21.68497 | 65.79175 | 33834 ft | 460 kts | 291° |
| 2026-05-05 09:37 | 21.70828 | 65.72754 | 33829 ft | 460 kts | 291° |
| 2026-05-05 09:38 | 21.73154 | 65.66339 | 33829 ft | 460 kts | 291° |
| 2026-05-05 09:38 | 21.75479 | 65.59918 | 33832 ft | 460 kts | 291° |
| 2026-05-05 09:39 | 21.77787 | 65.53534 | 33832 ft | 460 kts | 291° |
| 2026-05-05 09:39 | 21.80109 | 65.47101 | 33831 ft | 460 kts | 291° |
| 2026-05-05 09:40 | 21.82425 | 65.40677 | 33829 ft | 460 kts | 291° |
| 2026-05-05 09:40 | 21.84737 | 65.34256 | 33828 ft | 460 kts | 291° |
| 2026-05-05 09:41 | 21.87049 | 65.27826 | 33826 ft | 460 kts | 291° |
| 2026-05-05 09:41 | 21.89357 | 65.21397 | 33826 ft | 460 kts | 291° |
| 2026-05-05 09:42 | 21.91662 | 65.14968 | 33827 ft | 460 kts | 291° |
| 2026-05-05 09:42 | 21.93948 | 65.08584 | 33825 ft | 459 kts | 291° |
| 2026-05-05 09:43 | 21.96244 | 65.02161 | 33828 ft | 459 kts | 291° |
| 2026-05-05 09:43 | 21.98537 | 64.95739 | 33825 ft | 459 kts | 291° |
| 2026-05-05 09:44 | 22.00828 | 64.89313 | 33822 ft | 459 kts | 291° |
| 2026-05-05 09:44 | 22.03107 | 64.82911 | 33821 ft | 459 kts | 291° |
| 2026-05-05 09:45 | 22.05389 | 64.76491 | 33826 ft | 458 kts | 291° |
| 2026-05-05 09:45 | 22.07669 | 64.70069 | 33826 ft | 458 kts | 291° |
| 2026-05-05 09:46 | 22.09944 | 64.63652 | 33823 ft | 458 kts | 291° |
| 2026-05-05 09:46 | 22.12215 | 64.57237 | 33824 ft | 458 kts | 291° |
| 2026-05-05 09:47 | 22.14481 | 64.50825 | 33824 ft | 457 kts | 291° |
| 2026-05-05 09:47 | 22.16752 | 64.44393 | 33827 ft | 457 kts | 291° |
| 2026-05-05 09:48 | 22.18997 | 64.38022 | 33820 ft | 457 kts | 291° |
| 2026-05-05 09:48 | 22.21257 | 64.31603 | 33832 ft | 457 kts | 290° |
| 2026-05-05 09:49 | 22.23510 | 64.25191 | 33825 ft | 456 kts | 290° |
| 2026-05-05 09:49 | 22.25759 | 64.18783 | 33826 ft | 456 kts | 290° |
| 2026-05-05 09:50 | 22.27990 | 64.12416 | 33823 ft | 456 kts | 290° |
| 2026-05-05 09:50 | 22.30235 | 64.06002 | 33821 ft | 456 kts | 290° |
| 2026-05-05 09:51 | 22.32474 | 63.99594 | 33817 ft | 456 kts | 290° |
| 2026-05-05 09:51 | 22.34701 | 63.93212 | 33823 ft | 456 kts | 290° |
| 2026-05-05 09:52 | 22.36941 | 63.86784 | 33817 ft | 455 kts | 290° |
| 2026-05-05 09:52 | 22.39173 | 63.80370 | 33817 ft | 455 kts | 290° |
| 2026-05-05 09:53 | 22.41386 | 63.74000 | 33824 ft | 455 kts | 290° |
| 2026-05-05 09:53 | 22.43612 | 63.67584 | 33819 ft | 455 kts | 290° |
| 2026-05-05 09:54 | 22.45833 | 63.61172 | 33827 ft | 455 kts | 290° |
| 2026-05-05 09:54 | 22.48041 | 63.54789 | 33825 ft | 455 kts | 290° |
| 2026-05-05 09:55 | 22.50258 | 63.48372 | 33826 ft | 455 kts | 290° |
| 2026-05-05 09:55 | 22.52472 | 63.41952 | 33824 ft | 455 kts | 290° |
| 2026-05-05 09:56 | 22.54683 | 63.35532 | 33826 ft | 455 kts | 290° |
| 2026-05-05 09:56 | 22.56881 | 63.29140 | 33818 ft | 455 kts | 290° |
| 2026-05-05 09:57 | 22.59088 | 63.22714 | 33826 ft | 455 kts | 290° |
| 2026-05-05 09:57 | 22.61294 | 63.16278 | 33823 ft | 455 kts | 290° |
| 2026-05-05 09:58 | 22.63479 | 63.09896 | 33829 ft | 455 kts | 290° |
| 2026-05-05 09:58 | 22.65677 | 63.03467 | 33820 ft | 455 kts | 290° |
| 2026-05-05 09:59 | 22.67872 | 62.97038 | 33823 ft | 455 kts | 290° |
| 2026-05-05 09:59 | 22.70066 | 62.90601 | 33822 ft | 455 kts | 290° |
| 2026-05-05 10:00 | 22.72262 | 62.84149 | 33817 ft | 455 kts | 289° |
| 2026-05-05 10:00 | 22.74437 | 62.77747 | 33824 ft | 455 kts | 289° |
| 2026-05-05 10:01 | 22.76629 | 62.71288 | 33829 ft | 455 kts | 289° |
| 2026-05-05 10:01 | 22.78799 | 62.64882 | 33827 ft | 456 kts | 289° |
| 2026-05-05 10:02 | 22.80986 | 62.58419 | 33820 ft | 456 kts | 289° |
| 2026-05-05 10:02 | 22.83170 | 62.51953 | 33818 ft | 456 kts | 289° |
| 2026-05-05 10:03 | 22.85349 | 62.45491 | 33825 ft | 456 kts | 289° |
| 2026-05-05 10:03 | 22.87517 | 62.39054 | 33824 ft | 456 kts | 289° |
| 2026-05-05 10:04 | 22.89696 | 62.32573 | 33824 ft | 456 kts | 289° |
| 2026-05-05 10:04 | 22.91867 | 62.26109 | 33813 ft | 456 kts | 289° |
| 2026-05-05 10:05 | 22.94025 | 62.19670 | 33808 ft | 456 kts | 289° |
| 2026-05-05 10:05 | 22.96191 | 62.13199 | 33817 ft | 456 kts | 289° |
| 2026-05-05 10:06 | 22.98354 | 62.06728 | 33817 ft | 456 kts | 289° |
| 2026-05-05 10:06 | 23.00512 | 62.00259 | 33821 ft | 456 kts | 289° |
| 2026-05-05 10:07 | 23.02657 | 61.93821 | 33815 ft | 455 kts | 289° |
| 2026-05-05 10:07 | 23.04811 | 61.87348 | 33814 ft | 455 kts | 289° |
| 2026-05-05 10:08 | 23.06959 | 61.80880 | 33819 ft | 455 kts | 289° |
| 2026-05-05 10:08 | 23.09110 | 61.74395 | 33817 ft | 455 kts | 289° |
| 2026-05-05 10:09 | 23.11238 | 61.67968 | 33818 ft | 455 kts | 289° |
| 2026-05-05 10:09 | 23.13376 | 61.61503 | 33812 ft | 454 kts | 289° |
| 2026-05-05 10:10 | 23.15514 | 61.55025 | 33810 ft | 454 kts | 289° |
| 2026-05-05 10:10 | 23.17631 | 61.48603 | 33810 ft | 454 kts | 289° |
| 2026-05-05 10:11 | 23.19756 | 61.42146 | 33805 ft | 453 kts | 289° |
| 2026-05-05 10:11 | 23.21881 | 61.35677 | 33806 ft | 453 kts | 289° |
| 2026-05-05 10:12 | 23.23997 | 61.29228 | 33812 ft | 453 kts | 289° |
| 2026-05-05 10:12 | 23.26110 | 61.22776 | 33811 ft | 453 kts | 289° |
| 2026-05-05 10:13 | 23.28206 | 61.16366 | 33806 ft | 452 kts | 289° |
| 2026-05-05 10:13 | 23.30313 | 61.09915 | 33811 ft | 452 kts | 289° |
| 2026-05-05 10:14 | 23.32415 | 61.03468 | 33809 ft | 452 kts | 289° |
| 2026-05-05 10:14 | 23.34513 | 60.97021 | 33802 ft | 452 kts | 289° |
| 2026-05-05 10:15 | 23.36612 | 60.90562 | 33801 ft | 452 kts | 289° |
| 2026-05-05 10:15 | 23.38692 | 60.84153 | 33809 ft | 451 kts | 289° |
| 2026-05-05 10:16 | 23.40782 | 60.77701 | 33804 ft | 451 kts | 289° |
| 2026-05-05 10:16 | 23.42867 | 60.71255 | 33805 ft | 451 kts | 289° |
| 2026-05-05 10:17 | 23.44951 | 60.64802 | 33800 ft | 451 kts | 289° |
| 2026-05-05 10:17 | 23.47017 | 60.58396 | 33802 ft | 451 kts | 289° |
| 2026-05-05 10:18 | 23.49093 | 60.51945 | 33803 ft | 450 kts | 289° |
| 2026-05-05 10:18 | 23.51166 | 60.45498 | 33797 ft | 450 kts | 289° |
| 2026-05-05 10:19 | 23.53236 | 60.39047 | 33795 ft | 450 kts | 289° |
| 2026-05-05 10:19 | 23.55287 | 60.32643 | 33788 ft | 450 kts | 289° |
| 2026-05-05 10:20 | 23.57350 | 60.26195 | 33794 ft | 450 kts | 289° |
| 2026-05-05 10:20 | 23.59408 | 60.19752 | 33787 ft | 450 kts | 289° |
| 2026-05-05 10:21 | 23.61462 | 60.13310 | 33791 ft | 450 kts | 289° |
| 2026-05-05 10:21 | 23.63511 | 60.06871 | 33787 ft | 449 kts | 289° |
| 2026-05-05 10:22 | 23.65550 | 60.00457 | 33787 ft | 449 kts | 289° |
| 2026-05-05 10:22 | 23.67598 | 59.94004 | 33786 ft | 449 kts | 289° |
| 2026-05-05 10:23 | 23.69295 | 59.88647 | 33782 ft | 449 kts | 289° |
| 2026-05-05 10:23 | 23.71334 | 59.82202 | 33779 ft | 449 kts | 289° |
| 2026-05-05 10:24 | 23.73370 | 59.75754 | 33783 ft | 449 kts | 289° |
| 2026-05-05 10:24 | 23.75403 | 59.69310 | 33781 ft | 449 kts | 288° |
| 2026-05-05 10:25 | 23.77435 | 59.62855 | 33787 ft | 449 kts | 289° |
| 2026-05-05 10:25 | 23.79465 | 59.56396 | 33778 ft | 449 kts | 288° |
| 2026-05-05 10:26 | 23.81480 | 59.49974 | 33781 ft | 449 kts | 288° |
| 2026-05-05 10:26 | 23.83505 | 59.43512 | 33780 ft | 449 kts | 288° |
| 2026-05-05 10:27 | 23.85529 | 59.37039 | 33783 ft | 449 kts | 288° |
| 2026-05-05 10:27 | 23.87541 | 59.30594 | 33781 ft | 449 kts | 288° |
| 2026-05-05 10:28 | 23.89556 | 59.24130 | 33783 ft | 449 kts | 288° |
| 2026-05-05 10:28 | 23.91559 | 59.17695 | 33772 ft | 449 kts | 288° |
| 2026-05-05 10:29 | 23.93579 | 59.11231 | 33771 ft | 449 kts | 289° |
| 2026-05-05 10:29 | 23.95656 | 59.04785 | 33775 ft | 449 kts | 289° |
| 2026-05-05 10:30 | 23.97741 | 58.98336 | 33766 ft | 449 kts | 289° |
| 2026-05-05 10:30 | 23.99813 | 58.91894 | 33783 ft | 449 kts | 289° |
| 2026-05-05 10:31 | 24.01867 | 58.85481 | 33768 ft | 449 kts | 289° |
| 2026-05-05 10:31 | 24.03930 | 58.79029 | 33776 ft | 449 kts | 288° |
| 2026-05-05 10:32 | 24.05981 | 58.72606 | 33774 ft | 449 kts | 288° |
| 2026-05-05 10:32 | 24.08040 | 58.66148 | 33765 ft | 449 kts | 288° |
| 2026-05-05 10:33 | 24.10096 | 58.59690 | 33766 ft | 449 kts | 288° |
| 2026-05-05 10:33 | 24.12135 | 58.53265 | 33763 ft | 448 kts | 288° |
| 2026-05-05 10:34 | 24.14180 | 58.46802 | 33761 ft | 448 kts | 288° |
| 2026-05-05 10:34 | 24.16218 | 58.40346 | 33765 ft | 448 kts | 288° |
| 2026-05-05 10:35 | 24.18254 | 58.33891 | 33768 ft | 448 kts | 288° |
| 2026-05-05 10:35 | 24.20277 | 58.27464 | 33753 ft | 448 kts | 288° |
| 2026-05-05 10:36 | 24.22310 | 58.20995 | 33757 ft | 448 kts | 288° |
| 2026-05-05 10:36 | 24.24342 | 58.14520 | 33771 ft | 448 kts | 288° |
| 2026-05-05 10:37 | 24.26352 | 58.08102 | 33770 ft | 448 kts | 288° |
| 2026-05-05 10:37 | 24.28378 | 58.01625 | 33770 ft | 448 kts | 288° |
| 2026-05-05 10:38 | 24.30384 | 57.95200 | 33766 ft | 448 kts | 288° |
| 2026-05-05 10:38 | 24.32402 | 57.88727 | 33758 ft | 448 kts | 288° |
| 2026-05-05 10:39 | 24.34401 | 57.82301 | 33758 ft | 447 kts | 288° |
| 2026-05-05 10:39 | 24.36414 | 57.75823 | 33762 ft | 447 kts | 288° |
| 2026-05-05 10:40 | 24.38408 | 57.69392 | 33764 ft | 447 kts | 288° |
| 2026-05-05 10:40 | 24.40401 | 57.62957 | 33746 ft | 437 kts | 288° |
| 2026-05-05 10:41 | 24.41362 | 57.59848 | 33741 ft | 422 kts | 288° |
| 2026-05-05 10:41 | 24.42292 | 57.56842 | 33743 ft | 409 kts | 288° |
| 2026-05-05 10:41 | 24.44109 | 57.50953 | 33761 ft | 406 kts | 288° |
| 2026-05-05 10:42 | 24.46805 | 57.42220 | 33456 ft | 396 kts | 288° |
| 2026-05-05 10:42 | 24.47675 | 57.39399 | 33086 ft | 392 kts | 288° |
| 2026-05-05 10:43 | 24.48547 | 57.36570 | 32647 ft | 388 kts | 288° |
| 2026-05-05 10:43 | 24.49412 | 57.33763 | 32209 ft | 386 kts | 288° |
| 2026-05-05 10:43 | 24.50266 | 57.30985 | 31767 ft | 383 kts | 287° |
| 2026-05-05 10:43 | 24.51116 | 57.28220 | 31333 ft | 381 kts | 287° |
| 2026-05-05 10:44 | 24.51961 | 57.25467 | 30899 ft | 380 kts | 287° |
| 2026-05-05 10:44 | 24.52803 | 57.22726 | 30470 ft | 378 kts | 287° |
| 2026-05-05 10:44 | 24.53641 | 57.19992 | 30018 ft | 377 kts | 287° |
| 2026-05-05 10:44 | 24.54476 | 57.17265 | 29518 ft | 376 kts | 287° |
| 2026-05-05 10:45 | 24.55298 | 57.14583 | 29049 ft | 375 kts | 287° |
| 2026-05-05 10:45 | 24.56126 | 57.11877 | 28593 ft | 373 kts | 287° |
| 2026-05-05 10:45 | 24.56949 | 57.09183 | 28136 ft | 371 kts | 287° |
| 2026-05-05 10:45 | 24.57769 | 57.06502 | 27711 ft | 369 kts | 287° |
| 2026-05-05 10:46 | 24.58583 | 57.03837 | 27278 ft | 367 kts | 287° |
| 2026-05-05 10:46 | 24.59394 | 57.01178 | 26852 ft | 366 kts | 288° |
| 2026-05-05 10:46 | 24.60201 | 56.98532 | 26434 ft | 364 kts | 288° |
| 2026-05-05 10:46 | 24.61004 | 56.95897 | 26008 ft | 363 kts | 288° |
| 2026-05-05 10:47 | 24.61804 | 56.93268 | 25594 ft | 362 kts | 288° |
| 2026-05-05 10:47 | 24.62603 | 56.90644 | 25174 ft | 362 kts | 288° |
| 2026-05-05 10:47 | 24.63400 | 56.88022 | 24748 ft | 361 kts | 288° |
| 2026-05-05 10:47 | 24.64185 | 56.85393 | 24326 ft | 361 kts | 286° |
| 2026-05-05 10:48 | 24.64771 | 56.82705 | 23905 ft | 361 kts | 279° |
| 2026-05-05 10:48 | 24.65156 | 56.79977 | 23481 ft | 361 kts | 278° |
| 2026-05-05 10:48 | 24.65518 | 56.77236 | 23015 ft | 361 kts | 278° |
| 2026-05-05 10:48 | 24.65874 | 56.74533 | 22560 ft | 361 kts | 278° |
| 2026-05-05 10:49 | 24.66236 | 56.71811 | 22127 ft | 359 kts | 278° |
| 2026-05-05 10:49 | 24.66602 | 56.69090 | 21701 ft | 358 kts | 278° |
| 2026-05-05 10:49 | 24.66969 | 56.66381 | 21289 ft | 357 kts | 278° |
| 2026-05-05 10:49 | 24.67337 | 56.63676 | 20869 ft | 356 kts | 278° |
| 2026-05-05 10:50 | 24.67703 | 56.60985 | 20458 ft | 356 kts | 278° |
| 2026-05-05 10:50 | 24.68069 | 56.58295 | 20049 ft | 355 kts | 278° |
| 2026-05-05 10:50 | 24.68434 | 56.55607 | 19640 ft | 355 kts | 278° |
| 2026-05-05 10:50 | 24.68799 | 56.52914 | 19220 ft | 355 kts | 278° |
| 2026-05-05 10:51 | 24.69160 | 56.50262 | 18795 ft | 356 kts | 278° |
| 2026-05-05 10:51 | 24.69531 | 56.47564 | 18379 ft | 357 kts | 278° |
| 2026-05-05 10:51 | 24.69902 | 56.44858 | 17937 ft | 358 kts | 278° |
| 2026-05-05 10:51 | 24.70272 | 56.42150 | 17473 ft | 357 kts | 278° |
| 2026-05-05 10:52 | 24.70642 | 56.39448 | 17038 ft | 357 kts | 278° |
| 2026-05-05 10:52 | 24.71006 | 56.36779 | 16611 ft | 356 kts | 278° |
| 2026-05-05 10:52 | 24.71373 | 56.34085 | 16193 ft | 355 kts | 278° |
| 2026-05-05 10:52 | 24.71801 | 56.31432 | 15742 ft | 344 kts | 284° |
| 2026-05-05 10:53 | 24.72567 | 56.29013 | 15343 ft | 325 kts | 293° |
| 2026-05-05 10:53 | 24.73602 | 56.26840 | 14992 ft | 318 kts | 299° |
| 2026-05-05 10:53 | 24.74699 | 56.24756 | 14624 ft | 319 kts | 299° |
| 2026-05-05 10:53 | 24.75808 | 56.22636 | 14259 ft | 320 kts | 299° |
| 2026-05-05 10:54 | 24.76919 | 56.20500 | 13877 ft | 322 kts | 299° |
| 2026-05-05 10:54 | 24.78030 | 56.18355 | 13566 ft | 321 kts | 299° |
| 2026-05-05 10:54 | 24.79132 | 56.16224 | 13234 ft | 320 kts | 299° |
| 2026-05-05 10:54 | 24.80233 | 56.14086 | 12874 ft | 320 kts | 299° |
| 2026-05-05 10:55 | 24.81327 | 56.11953 | 12525 ft | 320 kts | 298° |
| 2026-05-05 10:55 | 24.82408 | 56.09843 | 12391 ft | 312 kts | 298° |
| 2026-05-05 10:55 | 24.83442 | 56.07826 | 12231 ft | 291 kts | 298° |
| 2026-05-05 10:55 | 24.84400 | 56.05959 | 12098 ft | 278 kts | 298° |
| 2026-05-05 10:56 | 24.85338 | 56.04130 | 11987 ft | 270 kts | 299° |
| 2026-05-05 10:56 | 24.86356 | 56.02406 | 11835 ft | 268 kts | 304° |
| 2026-05-05 10:56 | 24.87456 | 56.00715 | 11706 ft | 276 kts | 305° |
| 2026-05-05 10:56 | 24.88526 | 55.98957 | 11531 ft | 276 kts | 293° |
| 2026-05-05 10:57 | 24.88882 | 55.96930 | 11348 ft | 270 kts | 262° |
| 2026-05-05 10:57 | 24.88336 | 55.94959 | 11216 ft | 270 kts | 240° |
| 2026-05-05 10:57 | 24.87322 | 55.93222 | 11055 ft | 269 kts | 235° |
| 2026-05-05 10:57 | 24.86275 | 55.91543 | 10896 ft | 268 kts | 235° |
| 2026-05-05 10:58 | 24.85218 | 55.89855 | 10725 ft | 268 kts | 235° |
| 2026-05-05 10:58 | 24.84164 | 55.88160 | 10568 ft | 267 kts | 235° |
| 2026-05-05 10:58 | 24.83116 | 55.86462 | 10407 ft | 268 kts | 235° |
| 2026-05-05 10:58 | 24.82073 | 55.84767 | 10249 ft | 266 kts | 235° |
| 2026-05-05 10:59 | 24.81034 | 55.83074 | 10088 ft | 266 kts | 234° |
| 2026-05-05 10:59 | 24.79995 | 55.81382 | 9901 ft | 267 kts | 234° |
| 2026-05-05 10:59 | 24.78959 | 55.79690 | 9667 ft | 265 kts | 234° |
| 2026-05-05 10:59 | 24.77941 | 55.78027 | 9423 ft | 265 kts | 234° |
| 2026-05-05 11:00 | 24.76911 | 55.76347 | 9201 ft | 265 kts | 234° |
| 2026-05-05 11:00 | 24.75879 | 55.74662 | 8967 ft | 265 kts | 234° |
| 2026-05-05 11:00 | 24.74843 | 55.72973 | 8738 ft | 266 kts | 234° |
| 2026-05-05 11:00 | 24.73808 | 55.71285 | 8527 ft | 266 kts | 234° |
| 2026-05-05 11:01 | 24.72770 | 55.69592 | 8293 ft | 268 kts | 234° |
| 2026-05-05 11:01 | 24.71727 | 55.67889 | 8063 ft | 269 kts | 234° |
| 2026-05-05 11:01 | 24.70674 | 55.66175 | 7843 ft | 271 kts | 235° |
| 2026-05-05 11:01 | 24.69627 | 55.64470 | 7619 ft | 272 kts | 235° |
| 2026-05-05 11:02 | 24.68566 | 55.62744 | 7401 ft | 271 kts | 235° |
| 2026-05-05 11:02 | 24.67590 | 55.61000 | 7140 ft | 263 kts | 249° |
| 2026-05-05 11:02 | 24.67346 | 55.59095 | 6920 ft | 254 kts | 277° |
| 2026-05-05 11:02 | 24.67836 | 55.57262 | 6658 ft | 248 kts | 297° |
| 2026-05-05 11:03 | 24.68641 | 55.55582 | 6430 ft | 249 kts | 298° |
| 2026-05-05 11:03 | 24.69455 | 55.53905 | 6180 ft | 249 kts | 298° |
| 2026-05-05 11:03 | 24.70268 | 55.52228 | 5913 ft | 248 kts | 298° |
| 2026-05-05 11:03 | 24.71078 | 55.50551 | 5661 ft | 248 kts | 298° |
| 2026-05-05 11:04 | 24.71871 | 55.48870 | 5400 ft | 247 kts | 296° |
| 2026-05-05 11:04 | 24.72620 | 55.47177 | 5157 ft | 246 kts | 298° |
| 2026-05-05 11:04 | 24.73437 | 55.45527 | 4913 ft | 245 kts | 301° |
| 2026-05-05 11:04 | 24.74301 | 55.43917 | 4661 ft | 243 kts | 302° |
| 2026-05-05 11:05 | 24.75165 | 55.42347 | 4422 ft | 243 kts | 302° |
| 2026-05-05 11:05 | 24.76046 | 55.40753 | 4167 ft | 240 kts | 302° |
| 2026-05-05 11:05 | 24.76916 | 55.39179 | 3944 ft | 239 kts | 302° |
| 2026-05-05 11:05 | 24.77760 | 55.37653 | 3917 ft | 230 kts | 302° |
| 2026-05-05 11:06 | 24.78577 | 55.36176 | 3664 ft | 219 kts | 302° |
| 2026-05-05 11:06 | 24.79334 | 55.34806 | 3415 ft | 206 kts | 302° |
| 2026-05-05 11:06 | 24.80076 | 55.33463 | 3183 ft | 205 kts | 302° |
| 2026-05-05 11:06 | 24.80814 | 55.32126 | 2954 ft | 200 kts | 302° |
| 2026-05-05 11:07 | 24.81515 | 55.30856 | 2672 ft | 187 kts | 302° |
| 2026-05-05 11:07 | 24.82168 | 55.29673 | 2440 ft | 179 kts | 302° |
| 2026-05-05 11:07 | 24.82817 | 55.28500 | 2240 ft | 179 kts | 303° |
| 2026-05-05 11:07 | 24.83459 | 55.27339 | 2025 ft | 176 kts | 303° |
| 2026-05-05 11:08 | 24.84084 | 55.26202 | 1786 ft | 169 kts | 303° |
| 2026-05-05 11:08 | 24.84662 | 55.25161 | 1621 ft | 155 kts | 303° |
| 2026-05-05 11:08 | 24.85221 | 55.24145 | 1409 ft | 155 kts | 303° |
| 2026-05-05 11:08 | 24.85777 | 55.23138 | 1219 ft | 154 kts | 304° |
| 2026-05-05 11:09 | 24.86332 | 55.22119 | 1053 ft | 156 kts | 303° |
| 2026-05-05 11:09 | 24.86914 | 55.21082 | 827 ft | 161 kts | 302° |
| 2026-05-05 11:09 | 24.87508 | 55.20012 | 637 ft | 166 kts | 301° |
| 2026-05-05 11:09 | 24.88093 | 55.18924 | 416 ft | 163 kts | 301° |
| 2026-05-05 11:10 | 24.88666 | 55.17901 | 216 ft | 153 kts | 301° |
| 2026-05-05 11:10 | 24.89171 | 55.16993 | 161 ft | 124 kts | 301° |
| 2026-05-05 11:10 | 24.89525 | 55.16353 | 162 ft | 71 kts | 301° |
| 2026-05-05 11:10 | 24.89683 | 55.16068 | 162 ft | 23 kts | 301° |
| 2026-05-05 11:11 | 24.89755 | 55.15909 | 162 ft | 23 kts | 292° |
| 2026-05-05 11:11 | 24.89780 | 55.15794 | 161 ft | 23 kts | 275° |
| 2026-05-05 11:11 | 24.89783 | 55.15634 | 162 ft | 15 kts | 271° |
| 2026-05-05 11:11 | 24.89785 | 55.15516 | 162 ft | 15 kts | 270° |
| 2026-05-05 11:12 | 24.89742 | 55.15442 | 163 ft | 12 kts | 202° |
| 2026-05-05 11:12 | 24.89675 | 55.15483 | 163 ft | 12 kts | 122° |
| 2026-05-05 11:12 | 24.89630 | 55.15564 | 163 ft | 12 kts | 121° |
| 2026-05-05 11:12 | 24.89585 | 55.15645 | 163 ft | 12 kts | 122° |
| 2026-05-05 11:13 | 24.89540 | 55.15727 | 163 ft | 12 kts | 121° |
| 2026-05-05 11:13 | 24.89491 | 55.15783 | 163 ft | 9 kts | 166° |
| 2026-05-05 11:13 | 24.89429 | 55.15761 | 163 ft | 10 kts | 211° |
| 2026-05-05 11:13 | 24.89372 | 55.15724 | 163 ft | 10 kts | 211° |
| 2026-05-05 11:14 | 24.89315 | 55.15686 | 163 ft | 10 kts | 211° |
| 2026-05-05 11:14 | 24.89247 | 55.15641 | 164 ft | 13 kts | 211° |
| 2026-05-05 11:14 | 24.89172 | 55.15591 | 164 ft | 13 kts | 211° |
| 2026-05-05 11:14 | 24.89097 | 55.15541 | 164 ft | 13 kts | 211° |
| 2026-05-05 11:15 | 24.89022 | 55.15490 | 165 ft | 13 kts | 214° |
| 2026-05-05 11:15 | 24.89010 | 55.15439 | 165 ft | 3 kts | 314° |
| 2026-05-05 11:15 | 24.89031 | 55.15401 | 165 ft | 11 kts | 280° |
| 2026-05-05 11:15 | 24.88982 | 55.15341 | 166 ft | 11 kts | 201° |
| 2026-05-05 11:16 | 24.88886 | 55.15412 | 166 ft | 27 kts | 139° |
| 2026-05-05 11:16 | 24.88790 | 55.15530 | 167 ft | 12 kts | 121° |
| 2026-05-05 11:16 | 24.88772 | 55.15564 | 167 ft | 0 kts | 121° |